Perry, Illinois
Current Conditions -  °F | °C
As of 7:15 PM on Sunday 21 Dec 2014 (Local Time) from KPPQ Reporting Station
Overcast Overcast  
Wind Chill: 34°   Ceiling: 4900
Heat Index: 40°   Visibility: 10mi
Dew Point: 35°   Wind: 9mph
Humidity: 81%   Direction: 140°SE
Pressure: 29.99"   Gusts: NA
Location:  39.78°N, 90.75°W
Report Text: KPPQ 220115Z AUTO 14008KT 10SM SCT024 SCT030 OVC049 05/02 A2999 RMK AO2 T00450015
Loading
Personal Weather Stations






























Interactive Weather Map New forecast layout! Learn more

10-Day Weather Forecast

Advertisements
Track Severe Weather on mobile